createdAt,value
2023-04-17T00:00:51.377Z,9.06
2023-04-17T00:03:21.926Z,9.03
2023-04-17T00:05:50.245Z,9.03
2023-04-17T00:08:17.722Z,9.01
2023-04-17T00:10:51.113Z,9.00
2023-04-17T00:13:24.625Z,8.99
2023-04-17T00:16:37.840Z,8.96
2023-04-17T00:19:25.271Z,8.92
2023-04-17T00:21:52.253Z,8.92
2023-04-17T00:24:19.558Z,8.90
2023-04-17T00:26:51.183Z,8.89
2023-04-17T00:29:41.862Z,8.86
2023-04-17T00:33:26.364Z,8.84
2023-04-17T00:36:36.730Z,8.82
2023-04-17T00:40:10.857Z,8.79
2023-04-17T00:43:51.140Z,8.77
2023-04-17T00:46:48.877Z,8.79
2023-04-17T00:50:34.469Z,8.78
2023-04-17T00:54:36.548Z,8.75
2023-04-17T00:57:26.851Z,8.73
2023-04-17T01:00:36.482Z,8.71
2023-04-17T01:04:04.838Z,8.70
2023-04-17T04:31:43.055Z,7.92
2023-04-17T04:39:20.875Z,7.92
2023-04-17T06:32:47.021Z,8.10
2023-04-17T06:54:00.188Z,8.40
2023-04-17T07:23:10.942Z,9.41
2023-04-17T07:25:58.288Z,9.69
2023-04-17T09:13:08.739Z,14.35
2023-04-17T09:33:47.629Z,13.67
2023-04-17T09:37:01.829Z,14.01
2023-04-17T14:03:28.890Z,12.67
2023-04-17T14:06:05.581Z,12.72
2023-04-17T14:08:34.720Z,12.74
2023-04-17T16:29:27.947Z,11.75
2023-04-17T17:16:42.969Z,11.82
2023-04-17T19:42:22.481Z,11.35
2023-04-17T19:45:48.495Z,11.31
2023-04-17T19:49:20.839Z,11.27
2023-04-17T19:52:47.395Z,11.26
2023-04-17T19:56:10.425Z,11.20
2023-04-17T20:03:08.502Z,11.21
2023-04-17T20:06:17.368Z,11.20
2023-04-17T20:09:40.322Z,11.17
2023-04-17T20:13:07.393Z,11.13
2023-04-17T20:16:35.848Z,11.09
